Aramis — V7YD2 — position and weather

sailwx.info

Track history (hours):
 
Tides and Currents Weather Stations Pressure Air Temp Water Temp Dewpoint Dewpoint Depression Visibility Wind Speed Wind Dir Waves Ship Positions

Aramis

Last reported at 2017-Dec-09 12:11 UTC. Time now 2017-Dec-11 02:31 UTC.
Position S 28°48' E 032°02'.

Length 190 m; draft 6.2 m.

Type: Cargo ship. MMSI: 538004630.

Date/timePositionNaut miles runAvg speedWind from/ knotsBaromVisibWave heightAir tempDewpointWater temp
2017-Dec-09 12:11S 28°48' E 032°02'0 0.0
2017-Dec-09 11:59S 28°48' E 032°02'0 0.0
2017-Dec-09 11:29S 28°48' E 032°02'0 0.0
2017-Dec-09 10:59S 28°48' E 032°02'0 0.0
2017-Dec-08 05:53S 28°48' E 032°02'0 0.0
2017-Dec-08 05:29S 28°48' E 032°02'0 0.0
2017-Dec-08 04:59S 28°48' E 032°02'  
2017-Dec-04 08:20S 28°59' E 032°17'1 1.8
2017-Dec-04 08:00S 28°58' E 032°17'16 2.1
2017-Dec-04 00:31S 29°10' E 032°06'19 2.0
2017-Dec-03 15:10S 28°57' E 032°21'0 0.9
2017-Dec-03 14:52S 28°56' E 032°21'0 0.9
2017-Dec-03 14:30S 28°56' E 032°21'0 0.9
2017-Dec-03 14:00S 28°56' E 032°21'0 0.9
2017-Dec-03 13:30S 28°55' E 032°21'0 0.9
2017-Dec-03 13:00S 28°55' E 032°22'1 1.1
2017-Dec-03 12:29S 28°54' E 032°22'1 1.3
2017-Dec-03 12:00S 28°54' E 032°22'1 2.0
2017-Dec-03 11:26S 28°53' E 032°22'1 2.1
2017-Dec-03 11:00S 28°52' E 032°22'2 2.4
2017-Dec-03 10:17S 28°50' E 032°22'1 2.5
2017-Dec-03 09:54S 28°49' E 032°22'1 2.5
2017-Dec-03 09:25S 28°48' E 032°22'1 2.7
2017-Dec-03 09:00S 28°47' E 032°22'2 3.7
2017-Dec-03 08:30S 28°45' E 032°23'3 4.4
2017-Dec-03 07:50S 28°42' E 032°23'5 5.6
2017-Dec-03 06:54S 28°46' E 032°20'9 7.3
2017-Dec-03 05:38S 28°55' E 032°17'1 7.1
2017-Dec-03 05:30S 28°56' E 032°17'3 6.7
2017-Dec-03 05:00S 28°59' E 032°16'3 6.6
2017-Dec-03 04:30S 29°03' E 032°15'3 6.4
2017-Dec-03 04:00S 29°06' E 032°14'1 1.1
2017-Dec-03 03:30S 29°05' E 032°14'2 4.8
2017-Dec-03 03:00S 29°03' E 032°15'2 4.8
2017-Dec-03 02:30S 29°01' E 032°15'2 4.8
2017-Dec-03 02:00S 28°58' E 032°16'3 5.1
2017-Dec-03 01:30S 28°56' E 032°17'3 5.1
2017-Dec-03 01:00S 28°53' E 032°18'3 5.1
2017-Dec-03 00:30S 28°51' E 032°19'2 4.7
2017-Dec-03 00:00S 28°49' E 032°20'2 4.9
2017-Dec-02 23:30S 28°47' E 032°21'2 4.8
2017-Dec-02 23:00S 28°44' E 032°22'1 2.7
2017-Dec-02 22:30S 28°43' E 032°22'3 6.4
2017-Dec-02 22:00S 28°45' E 032°19'4 8.5
2017-Dec-02 21:30S 28°48' E 032°16'1 1.5
2017-Dec-02 21:00S 28°48' E 032°17'2 3.6
2017-Dec-02 20:30S 28°46' E 032°18'2 3.8
2017-Dec-02 20:00S 28°45' E 032°19'2 4.2
2017-Dec-02 19:30S 28°43' E 032°21'2 4.0
2017-Dec-02 19:00S 28°42' E 032°23'3 6.3
2017-Dec-02 18:30S 28°45' E 032°21'3 6.2
2017-Dec-02 18:01S 28°48' E 032°19'3 5.8
2017-Dec-02 17:30S 28°50' E 032°18'7 5.7
2017-Dec-02 16:13S 28°57' E 032°16'2 5.4
2017-Dec-02 15:51S 28°59' E 032°15'2 5.8
2017-Dec-02 15:29S 29°01' E 032°14'3 5.8
2017-Dec-02 15:00S 29°03' E 032°12'3 5.6
2017-Dec-02 14:30S 29°05' E 032°10'3 5.8
2017-Dec-02 14:00S 29°07' E 032°07'3 5.8
2017-Dec-02 13:30S 29°10' E 032°06'3 5.9
2017-Dec-02 13:00S 29°13' E 032°05'1 1.2
2017-Dec-02 12:30S 29°13' E 032°06'2 4.9
2017-Dec-02 12:00S 29°11' E 032°07'2 4.8
2017-Dec-02 11:30S 29°09' E 032°08'2 4.8
2017-Dec-02 11:00S 29°06' E 032°10'2 4.7
2017-Dec-02 10:30S 29°04' E 032°11'2 4.8
2017-Dec-02 10:00S 29°02' E 032°12'3 4.9
2017-Dec-02 09:30S 28°60' E 032°13'3 5.0
2017-Dec-02 08:53S 28°57' E 032°15'2 5.1
2017-Dec-02 08:30S 28°55' E 032°15'4 5.1
2017-Dec-02 07:47S 28°52' E 032°17'1 4.8
2017-Dec-02 07:30S 28°51' E 032°18'3 4.8
2017-Dec-02 06:58S 28°48' E 032°19'2 4.8
2017-Dec-02 06:30S 28°46' E 032°21'3 1.6
2017-Dec-02 04:45S 28°44' E 032°21'2 6.9
2017-Dec-02 04:30S 28°45' E 032°21'4 7.0
2017-Dec-02 04:00S 28°49' E 032°20'3 7.1
2017-Dec-02 03:30S 28°52' E 032°18'18 7.7
2017-Dec-02 01:14S 29°09' E 032°13'3 5.3
2017-Dec-02 00:37S 29°12' E 032°13'0 3.2
2017-Dec-02 00:29S 29°12' E 032°13'2 3.2
2017-Dec-02 00:00S 29°10' E 032°14'2 3.0
2017-Dec-01 23:30S 29°09' E 032°14'1 2.9
2017-Dec-01 23:00S 29°08' E 032°15'1 2.8
2017-Dec-01 22:30S 29°06' E 032°15'1 2.7
2017-Dec-01 22:00S 29°05' E 032°16'1 2.4
2017-Dec-01 21:30S 29°04' E 032°16'1 2.7
2017-Dec-01 21:00S 29°03' E 032°17'4 2.7
2017-Dec-01 19:29S 28°58' E 032°16'12 2.8
2017-Dec-01 15:04S 28°47' E 032°20'3 5.5
2017-Dec-01 14:32S 28°49' E 032°19'1 5.4
2017-Dec-01 14:22S 28°50' E 032°18'2 5.3
2017-Dec-01 14:00S 28°52' E 032°17'1 1.8
2017-Dec-01 13:30S 28°51' E 032°17'3 5.6
2017-Dec-01 13:00S 28°48' E 032°19'3 5.5
2017-Dec-01 12:30S 28°46' E 032°20'3 5.4
2017-Dec-01 12:00S 28°43' E 032°21'1 2.4
2017-Dec-01 11:30S 28°42' E 032°22'3 5.6
2017-Dec-01 11:00S 28°45' E 032°20'3 6.3
2017-Dec-01 10:30S 28°48' E 032°19'6 6.0
2017-Dec-01 09:27S 28°54' E 032°17'5 4.2
2017-Dec-01 08:14S 28°49' E 032°19'8 1.7
2017-Dec-01 03:41S 28°56' E 032°21'1 2.1
2017-Dec-01 03:21S 28°55' E 032°21'2 3.7
2017-Dec-01 02:46S 28°53' E 032°21'5 1.0
2017-Nov-30 21:47S 28°50' E 032°17'21 1.5
2017-Nov-30 07:43S 29°11' E 032°11'1 1.1
2017-Nov-30 06:40S 29°10' E 032°11'13 1.6
2017-Nov-29 22:22S 29°08' E 031°56'814.5
2017-Nov-29 21:49S 29°13' E 031°50'514.8
2017-Nov-29 21:30S 29°17' E 031°46'715.1
2017-Nov-29 21:01S 29°22' E 031°40'815.1
2017-Nov-29 20:31S 29°27' E 031°34'815.1
2017-Nov-29 20:01S 29°33' E 031°28'815.1
2017-Nov-29 19:31S 29°39' E 031°23'815.3
2017-Nov-29 19:01S 29°45' E 031°17'714.7
2017-Nov-29 18:30S 29°50' E 031°11'612.4
2017-Nov-29 18:00S 29°51' E 031°04'3 6.0
2017-Nov-29 17:30S 29°52' E 031°01'0 0.8
2017-Nov-29 16:58S 29°52' E 031°01'0 0.0
2017-Nov-29 16:28S 29°52' E 031°01'0 0.0
2017-Nov-29 15:58S 29°52' E 031°01'0 0.0
2017-Nov-29 15:28S 29°52' E 031°01'0 0.0
2017-Nov-29 14:58S 29°52' E 031°01'0 0.0
2017-Nov-29 14:28S 29°52' E 031°01'0 0.0
2017-Nov-29 13:58S 29°52' E 031°01'0 0.0
2017-Nov-29 13:28S 29°52' E 031°01'0 0.0
2017-Nov-29 12:58S 29°52' E 031°01'0 0.0
2017-Nov-29 12:28S 29°52' E 031°01'  
Track history (hours):
 
Tides and Currents Weather Stations Pressure Air Temp Water Temp Dewpoint Dewpoint Depression Visibility Wind Speed Wind Dir Waves Ship Positions

Aramis

Last reported at 2017-Dec-09 12:11 UTC. Time now 2017-Dec-11 02:31 UTC.
Position S 28°48' E 032°02'.

Length 190 m; draft 6.2 m.

Type: Cargo ship. MMSI: 538004630.

Date/timePositionNaut miles runAvg speedWind from/ knotsBaromVisibWave heightAir tempDewpointWater temp
2017-Dec-09 12:11S 28°48' E 032°02'0 0.0
2017-Dec-09 11:59S 28°48' E 032°02'0 0.0
2017-Dec-09 11:29S 28°48' E 032°02'0 0.0
2017-Dec-09 10:59S 28°48' E 032°02'0 0.0
2017-Dec-08 05:53S 28°48' E 032°02'0 0.0
2017-Dec-08 05:29S 28°48' E 032°02'0 0.0
2017-Dec-08 04:59S 28°48' E 032°02'  
2017-Dec-04 08:20S 28°59' E 032°17'1 1.8
2017-Dec-04 08:00S 28°58' E 032°17'16 2.1
2017-Dec-04 00:31S 29°10' E 032°06'19 2.0
2017-Dec-03 15:10S 28°57' E 032°21'0 0.9
2017-Dec-03 14:52S 28°56' E 032°21'0 0.9
2017-Dec-03 14:30S 28°56' E 032°21'0 0.9
2017-Dec-03 14:00S 28°56' E 032°21'0 0.9
2017-Dec-03 13:30S 28°55' E 032°21'0 0.9
2017-Dec-03 13:00S 28°55' E 032°22'1 1.1
2017-Dec-03 12:29S 28°54' E 032°22'1 1.3
2017-Dec-03 12:00S 28°54' E 032°22'1 2.0
2017-Dec-03 11:26S 28°53' E 032°22'1 2.1
2017-Dec-03 11:00S 28°52' E 032°22'2 2.4
2017-Dec-03 10:17S 28°50' E 032°22'1 2.5
2017-Dec-03 09:54S 28°49' E 032°22'1 2.5
2017-Dec-03 09:25S 28°48' E 032°22'1 2.7
2017-Dec-03 09:00S 28°47' E 032°22'2 3.7
2017-Dec-03 08:30S 28°45' E 032°23'3 4.4
2017-Dec-03 07:50S 28°42' E 032°23'5 5.6
2017-Dec-03 06:54S 28°46' E 032°20'9 7.3
2017-Dec-03 05:38S 28°55' E 032°17'1 7.1
2017-Dec-03 05:30S 28°56' E 032°17'3 6.7
2017-Dec-03 05:00S 28°59' E 032°16'3 6.6
2017-Dec-03 04:30S 29°03' E 032°15'3 6.4
2017-Dec-03 04:00S 29°06' E 032°14'1 1.1
2017-Dec-03 03:30S 29°05' E 032°14'2 4.8
2017-Dec-03 03:00S 29°03' E 032°15'2 4.8
2017-Dec-03 02:30S 29°01' E 032°15'2 4.8
2017-Dec-03 02:00S 28°58' E 032°16'3 5.1
2017-Dec-03 01:30S 28°56' E 032°17'3 5.1
2017-Dec-03 01:00S 28°53' E 032°18'3 5.1
2017-Dec-03 00:30S 28°51' E 032°19'2 4.7
2017-Dec-03 00:00S 28°49' E 032°20'2 4.9
2017-Dec-02 23:30S 28°47' E 032°21'2 4.8
2017-Dec-02 23:00S 28°44' E 032°22'1 2.7
2017-Dec-02 22:30S 28°43' E 032°22'3 6.4
2017-Dec-02 22:00S 28°45' E 032°19'4 8.5
2017-Dec-02 21:30S 28°48' E 032°16'1 1.5
2017-Dec-02 21:00S 28°48' E 032°17'2 3.6
2017-Dec-02 20:30S 28°46' E 032°18'2 3.8
2017-Dec-02 20:00S 28°45' E 032°19'2 4.2
2017-Dec-02 19:30S 28°43' E 032°21'2 4.0
2017-Dec-02 19:00S 28°42' E 032°23'3 6.3
2017-Dec-02 18:30S 28°45' E 032°21'3 6.2
2017-Dec-02 18:01S 28°48' E 032°19'3 5.8
2017-Dec-02 17:30S 28°50' E 032°18'7 5.7
2017-Dec-02 16:13S 28°57' E 032°16'2 5.4
2017-Dec-02 15:51S 28°59' E 032°15'2 5.8
2017-Dec-02 15:29S 29°01' E 032°14'3 5.8
2017-Dec-02 15:00S 29°03' E 032°12'3 5.6
2017-Dec-02 14:30S 29°05' E 032°10'3 5.8
2017-Dec-02 14:00S 29°07' E 032°07'3 5.8
2017-Dec-02 13:30S 29°10' E 032°06'3 5.9
2017-Dec-02 13:00S 29°13' E 032°05'1 1.2
2017-Dec-02 12:30S 29°13' E 032°06'2 4.9
2017-Dec-02 12:00S 29°11' E 032°07'2 4.8
2017-Dec-02 11:30S 29°09' E 032°08'2 4.8
2017-Dec-02 11:00S 29°06' E 032°10'2 4.7
2017-Dec-02 10:30S 29°04' E 032°11'2 4.8
2017-Dec-02 10:00S 29°02' E 032°12'3 4.9
2017-Dec-02 09:30S 28°60' E 032°13'3 5.0
2017-Dec-02 08:53S 28°57' E 032°15'2 5.1
2017-Dec-02 08:30S 28°55' E 032°15'4 5.1
2017-Dec-02 07:47S 28°52' E 032°17'1 4.8
2017-Dec-02 07:30S 28°51' E 032°18'3 4.8
2017-Dec-02 06:58S 28°48' E 032°19'2 4.8
2017-Dec-02 06:30S 28°46' E 032°21'3 1.6
2017-Dec-02 04:45S 28°44' E 032°21'2 6.9
2017-Dec-02 04:30S 28°45' E 032°21'4 7.0
2017-Dec-02 04:00S 28°49' E 032°20'3 7.1
2017-Dec-02 03:30S 28°52' E 032°18'18 7.7
2017-Dec-02 01:14S 29°09' E 032°13'3 5.3
2017-Dec-02 00:37S 29°12' E 032°13'0 3.2
2017-Dec-02 00:29S 29°12' E 032°13'2 3.2
2017-Dec-02 00:00S 29°10' E 032°14'2 3.0
2017-Dec-01 23:30S 29°09' E 032°14'1 2.9
2017-Dec-01 23:00S 29°08' E 032°15'1 2.8
2017-Dec-01 22:30S 29°06' E 032°15'1 2.7
2017-Dec-01 22:00S 29°05' E 032°16'1 2.4
2017-Dec-01 21:30S 29°04' E 032°16'1 2.7
2017-Dec-01 21:00S 29°03' E 032°17'4 2.7
2017-Dec-01 19:29S 28°58' E 032°16'12 2.8
2017-Dec-01 15:04S 28°47' E 032°20'3 5.5
2017-Dec-01 14:32S 28°49' E 032°19'1 5.4
2017-Dec-01 14:22S 28°50' E 032°18'2 5.3
2017-Dec-01 14:00S 28°52' E 032°17'1 1.8
2017-Dec-01 13:30S 28°51' E 032°17'3 5.6
2017-Dec-01 13:00S 28°48' E 032°19'3 5.5
2017-Dec-01 12:30S 28°46' E 032°20'3 5.4
2017-Dec-01 12:00S 28°43' E 032°21'1 2.4
2017-Dec-01 11:30S 28°42' E 032°22'3 5.6
2017-Dec-01 11:00S 28°45' E 032°20'3 6.3
2017-Dec-01 10:30S 28°48' E 032°19'6 6.0
2017-Dec-01 09:27S 28°54' E 032°17'5 4.2
2017-Dec-01 08:14S 28°49' E 032°19'8 1.7
2017-Dec-01 03:41S 28°56' E 032°21'1 2.1
2017-Dec-01 03:21S 28°55' E 032°21'2 3.7
2017-Dec-01 02:46S 28°53' E 032°21'5 1.0
2017-Nov-30 21:47S 28°50' E 032°17'21 1.5
2017-Nov-30 07:43S 29°11' E 032°11'1 1.1
2017-Nov-30 06:40S 29°10' E 032°11'13 1.6
2017-Nov-29 22:22S 29°08' E 031°56'814.5
2017-Nov-29 21:49S 29°13' E 031°50'514.8
2017-Nov-29 21:30S 29°17' E 031°46'715.1
2017-Nov-29 21:01S 29°22' E 031°40'815.1
2017-Nov-29 20:31S 29°27' E 031°34'815.1
2017-Nov-29 20:01S 29°33' E 031°28'815.1
2017-Nov-29 19:31S 29°39' E 031°23'815.3
2017-Nov-29 19:01S 29°45' E 031°17'714.7
2017-Nov-29 18:30S 29°50' E 031°11'612.4
2017-Nov-29 18:00S 29°51' E 031°04'3 6.0
2017-Nov-29 17:30S 29°52' E 031°01'0 0.8
2017-Nov-29 16:58S 29°52' E 031°01'0 0.0
2017-Nov-29 16:28S 29°52' E 031°01'0 0.0
2017-Nov-29 15:58S 29°52' E 031°01'0 0.0
2017-Nov-29 15:28S 29°52' E 031°01'0 0.0
2017-Nov-29 14:58S 29°52' E 031°01'0 0.0
2017-Nov-29 14:28S 29°52' E 031°01'0 0.0
2017-Nov-29 13:58S 29°52' E 031°01'0 0.0
2017-Nov-29 13:28S 29°52' E 031°01'0 0.0
2017-Nov-29 12:58S 29°52' E 031°01'0 0.0
2017-Nov-29 12:28S 29°52' E 031°01'  

Dump ship's entire track history